Time;durP1;ratioP1;P1;durP2;ratioP2;P2;SDS_P1;SDS_P2;PMS_P1;PMS_P2;Temp;Humidity;BMP_temperature;BMP_pressure;BME280_temperature;BME280_humidity;BME280_pressure;Samples;Min_cycle;Max_cycle;Signal;HPM_P1;HPM_P2
2021/09/18 00:00:09;;;;;;;11.73;10.02;;;;;;;16.57;54.78;95329.88;5010177;28;20408;-85
2021/09/18 00:02:34;;;;;;;12.77;11.52;;;;;;;16.53;54.73;95320.13;4994121;28;20041;-85
2021/09/18 00:05:00;;;;;;;15.05;12.50;;;;;;;16.43;54.90;95312.53;5013604;28;20464;-86
2021/09/18 00:07:25;;;;;;;13.73;12.10;;;;;;;16.40;54.64;95322.06;4995456;28;20050;-86
2021/09/18 00:09:50;;;;;;;11.27;10.13;;;;;;;16.27;54.77;95304.38;4994807;28;20037;-87
2021/09/18 00:12:16;;;;;;;11.15;10.07;;;;;;;16.25;55.07;95304.72;4995280;28;20507;-86
2021/09/18 00:14:41;;;;;;;14.90;11.45;;;;;;;16.24;54.95;95297.78;4994733;28;20041;-86
2021/09/18 00:17:07;;;;;;;15.02;11.38;;;;;;;16.38;54.99;95318.94;5014180;28;20029;-86
2021/09/18 00:19:34;;;;;;;13.57;11.60;;;;;;;16.43;54.35;95334.00;5015416;28;20415;-85
2021/09/18 00:22:00;;;;;;;10.88;9.70;;;;;;;16.37;55.17;95326.19;5012782;28;20030;-85
2021/09/18 00:24:25;;;;;;;11.13;9.60;;;;;;;16.34;54.98;95328.78;5011948;28;20050;-85
2021/09/18 00:26:50;;;;;;;12.60;11.23;;;;;;;16.34;55.24;95323.41;5012255;28;20041;-86
2021/09/18 00:29:16;;;;;;;10.55;9.43;;;;;;;16.28;55.02;95322.06;5011420;28;20022;-85
2021/09/18 00:31:42;;;;;;;10.38;9.38;;;;;;;16.36;55.05;95335.38;5013813;28;20373;-86
2021/09/18 00:34:08;;;;;;;10.77;9.25;;;;;;;16.35;54.65;95335.72;5007534;28;20414;-86
2021/09/18 00:36:33;;;;;;;10.52;9.63;;;;;;;16.35;54.84;95328.44;5011772;28;20084;-85
2021/09/18 00:38:59;;;;;;;10.13;9.13;;;;;;;16.35;54.58;95333.81;5011518;28;20046;-86
2021/09/18 00:41:24;;;;;;;9.85;8.80;;;;;;;16.33;54.44;95327.22;5011994;28;21302;-86
2021/09/18 00:43:52;;;;;;;8.82;8.07;;;;;;;16.22;54.66;95331.44;5013307;28;20379;-87
2021/09/18 00:46:17;;;;;;;9.38;8.48;;;;;;;16.24;54.91;95331.91;5011661;28;20038;-88
2021/09/18 00:48:43;;;;;;;10.05;9.05;;;;;;;16.18;54.55;95327.88;5011357;28;20179;-88
2021/09/18 00:51:08;;;;;;;9.18;8.10;;;;;;;16.14;54.87;95326.97;5011600;28;20038;-86
2021/09/18 00:53:33;;;;;;;9.10;8.30;;;;;;;16.10;55.14;95327.63;5011610;28;20034;-86
2021/09/18 00:56:00;;;;;;;12.43;9.00;;;;;;;16.09;55.00;95326.06;5013522;28;20171;-86
2021/09/18 00:58:25;;;;;;;10.52;9.50;;;;;;;16.11;54.99;95337.25;5011463;28;20037;-86
2021/09/18 01:00:51;;;;;;;12.18;8.63;;;;;;;16.11;55.07;95328.41;5010601;28;20041;-87
2021/09/18 01:03:16;;;;;;;11.68;10.10;;;;;;;16.03;54.81;95316.69;4993753;28;20065;-85
2021/09/18 01:05:41;;;;;;;9.85;8.95;;;;;;;16.09;55.02;95328.75;5011148;28;20036;-85
2021/09/18 01:08:10;;;;;;;10.18;9.27;;;;;;;16.05;55.05;95322.50;5011440;28;20022;-84
2021/09/18 01:10:36;;;;;;;10.23;8.80;;;;;;;16.05;55.03;95322.50;5013072;28;20034;-85
2021/09/18 01:13:06;;;;;;;9.10;8.05;;;;;;;16.11;54.96;95331.09;5011114;28;20483;-85
2021/09/18 01:15:34;;;;;;;10.02;8.95;;;;;;;16.07;54.87;95330.19;5010937;28;20061;-86
2021/09/18 01:17:59;;;;;;;11.50;10.32;;;;;;;16.01;54.75;95336.91;5011487;28;20108;-86
2021/09/18 01:20:26;;;;;;;11.07;9.27;;;;;;;16.00;54.88;95329.97;5010767;28;21312;-85
2021/09/18 01:22:54;;;;;;;9.00;8.13;;;;;;;15.93;54.79;95329.75;4995379;28;20033;-86
2021/09/18 01:25:19;;;;;;;9.77;8.88;;;;;;;15.98;54.79;95330.31;4994032;28;20036;-86
2021/09/18 01:27:45;;;;;;;10.55;9.07;;;;;;;16.02;54.49;95335.78;4993744;28;20072;-86
2021/09/18 01:30:25;;;;;;;11.25;10.00;;;;;;;15.92;54.48;95318.25;4991953;28;20037;-86
2021/09/18 01:32:59;;;;;;;12.15;10.63;;;;;;;15.97;54.21;95327.94;5010516;28;20042;-86
2021/09/18 01:35:25;;;;;;;10.85;9.40;;;;;;;15.85;54.47;95318.78;4993640;28;20054;-86
2021/09/18 01:37:50;;;;;;;15.10;10.90;;;;;;;15.90;54.40;95330.41;5012774;28;20060;-87
2021/09/18 01:40:22;;;;;;;16.60;12.48;;;;;;;15.83;54.32;95325.59;4993050;28;20038;-87
2021/09/18 01:42:48;;;;;;;9.95;9.05;;;;;;;15.82;54.69;95324.81;5010861;28;20042;-87
2021/09/18 01:45:15;;;;;;;9.85;8.95;;;;;;;15.82;54.55;95330.19;5009669;28;20065;-86
2021/09/18 01:47:45;;;;;;;10.10;9.10;;;;;;;15.78;54.45;95318.53;5010702;28;20038;-87
2021/09/18 01:50:35;;;;;;;12.88;11.60;;;;;;;15.77;54.38;95321.56;4993157;28;20388;-86
2021/09/18 01:53:03;;;;;;;9.75;8.88;;;;;;;15.72;54.23;95309.16;5012513;28;20129;-88
2021/09/18 01:55:30;;;;;;;11.88;10.50;;;;;;;15.69;54.71;95315.16;5010968;28;20566;-85
2021/09/18 01:57:57;;;;;;;10.00;9.00;;;;;;;15.75;54.43;95329.91;5010833;28;20044;-86
2021/09/18 02:00:23;;;;;;;9.25;8.40;;;;;;;15.74;54.49;95320.31;5008931;28;20034;-85
2021/09/18 02:02:49;;;;;;;16.58;11.35;;;;;;;15.77;54.45;95327.72;5010606;28;20034;-87
2021/09/18 02:05:18;;;;;;;12.25;11.00;;;;;;;15.70;54.29;95318.63;5010796;28;20147;-86
2021/09/18 02:07:43;;;;;;;14.02;11.00;;;;;;;15.65;54.54;95326.88;4995380;28;20025;-85
2021/09/18 02:10:12;;;;;;;10.38;9.38;;;;;;;15.67;54.28;95327.34;5010261;28;20088;-84
2021/09/18 02:12:37;;;;;;;12.52;11.20;;;;;;;15.68;54.90;95331.59;4993334;28;20034;-85
2021/09/18 02:15:05;;;;;;;9.73;8.85;;;;;;;15.69;54.93;95330.47;4992969;28;20048;-84
2021/09/18 02:17:31;;;;;;;12.05;8.73;;;;;;;15.67;54.73;95330.81;5010451;28;20046;-84
2021/09/18 02:19:56;;;;;;;9.35;8.43;;;;;;;15.66;54.44;95320.41;4994784;28;20029;-86
2021/09/18 02:22:22;;;;;;;10.93;9.90;;;;;;;15.68;54.47;95315.50;5010671;28;20042;-87
2021/09/18 02:24:47;;;;;;;10.05;8.25;;;;;;;15.73;54.25;95328.69;4993002;28;20027;-85
2021/09/18 02:27:12;;;;;;;9.93;8.55;;;;;;;15.65;54.22;95318.84;5010727;28;20038;-84
2021/09/18 02:29:38;;;;;;;12.48;10.30;;;;;;;15.62;54.54;95311.44;5009824;28;20404;-85
2021/09/18 02:32:03;;;;;;;11.38;8.57;;;;;;;15.68;54.19;95320.88;5012476;28;20112;-84
2021/09/18 02:34:29;;;;;;;9.60;8.68;;;;;;;15.64;54.19;95323.41;5009765;28;20034;-82
2021/09/18 02:36:54;;;;;;;14.82;10.85;;;;;;;15.59;54.32;95302.94;5010183;28;20049;-86
2021/09/18 02:39:20;;;;;;;10.25;9.25;;;;;;;15.60;54.03;95320.56;5010197;28;20112;-88
2021/09/18 02:41:45;;;;;;;9.57;8.68;;;;;;;15.62;54.29;95324.84;5009430;28;20030;-87
2021/09/18 02:44:11;;;;;;;10.25;9.25;;;;;;;15.57;54.06;95305.16;5008655;28;20026;-86
2021/09/18 02:46:36;;;;;;;8.95;8.15;;;;;;;15.53;54.60;95300.78;5012319;28;20076;-87
2021/09/18 02:49:01;;;;;;;10.98;9.70;;;;;;;15.37;54.27;95276.50;5009969;28;20053;-87
2021/09/18 02:51:27;;;;;;;10.20;9.07;;;;;;;15.53;54.32;95309.63;5009310;28;20038;-87
2021/09/18 02:53:52;;;;;;;10.15;9.23;;;;;;;15.37;54.23;95281.09;5010653;28;20040;-87
2021/09/18 02:56:18;;;;;;;11.00;9.90;;;;;;;15.54;54.37;95307.72;5012162;28;20072;-86
2021/09/18 02:58:43;;;;;;;16.00;12.13;;;;;;;15.51;54.41;95314.53;5014441;28;20072;-86
2021/09/18 03:01:15;;;;;;;9.95;9.05;;;;;;;15.48;54.18;95315.19;5013080;28;20042;-86
2021/09/18 03:03:41;;;;;;;13.30;11.20;;;;;;;15.49;54.67;95314.06;4995991;28;20069;-87
2021/09/18 03:06:06;;;;;;;13.30;9.55;;;;;;;15.43;54.39;95299.31;5013736;28;20034;-87
2021/09/18 03:08:32;;;;;;;11.82;10.05;;;;;;;15.43;54.65;95302.00;4996295;28;20045;-86
2021/09/18 03:10:57;;;;;;;9.88;8.88;;;;;;;15.42;54.96;95303.13;5015527;28;20034;-86
2021/09/18 03:13:22;;;;;;;9.70;8.43;;;;;;;15.48;54.65;95309.81;5013683;28;20037;-87
2021/09/18 03:15:48;;;;;;;9.52;8.52;;;;;;;15.48;54.59;95312.50;4995608;28;20030;-89
2021/09/18 03:18:13;;;;;;;10.75;9.45;;;;;;;15.42;54.43;95297.75;5013590;28;20069;-87
2021/09/18 03:20:38;;;;;;;9.63;8.82;;;;;;;15.36;54.61;95287.56;5003698;28;20484;-87
2021/09/18 03:23:04;;;;;;;8.95;8.05;;;;;;;15.42;54.72;95303.13;5015055;28;20127;-86
2021/09/18 03:25:29;;;;;;;8.13;7.47;;;;;;;15.39;54.58;95301.09;5013524;28;20030;-87
2021/09/18 03:27:55;;;;;;;8.10;7.30;;;;;;;15.34;54.45;95295.94;5013407;28;20125;-87
2021/09/18 03:30:21;;;;;;;8.80;8.02;;;;;;;15.41;54.21;95303.44;5012523;28;20034;-87
2021/09/18 03:32:46;;;;;;;9.93;8.93;;;;;;;15.35;54.39;95310.88;4995620;28;20065;-86
2021/09/18 03:35:11;;;;;;;10.85;9.65;;;;;;;15.33;54.41;95307.75;5013130;28;20026;-87
2021/09/18 03:37:37;;;;;;;9.40;8.43;;;;;;;15.29;54.75;95307.63;5015137;28;20018;-87
2021/09/18 03:40:08;;;;;;;9.13;8.23;;;;;;;15.32;54.61;95300.84;5012915;28;20041;-86
2021/09/18 03:42:34;;;;;;;9.40;8.50;;;;;;;15.31;54.21;95305.41;5012960;28;20041;-86
2021/09/18 03:44:59;;;;;;;12.27;10.00;;;;;;;15.28;54.59;95290.00;5025758;28;20034;-87
2021/09/18 03:47:24;;;;;;;8.60;7.80;;;;;;;15.26;54.47;95292.22;5012493;28;20137;-87
2021/09/18 03:49:50;;;;;;;9.75;8.85;;;;;;;15.27;54.85;95293.00;5014397;28;20492;-86
2021/09/18 03:52:15;;;;;;;9.13;8.23;;;;;;;15.33;54.80;95299.72;5013068;28;20030;-87
2021/09/18 03:54:41;;;;;;;8.60;7.85;;;;;;;15.39;54.83;95313.69;5012688;28;20058;-87
2021/09/18 03:57:06;;;;;;;8.02;6.78;;;;;;;15.29;55.03;95290.78;5012927;28;20026;-86
2021/09/18 03:59:31;;;;;;;11.38;9.30;;;;;;;15.32;54.25;95301.63;5011980;28;20034;-86
2021/09/18 04:01:57;;;;;;;14.52;9.25;;;;;;;15.37;54.30;95319.41;5014297;28;20038;-86
2021/09/18 04:04:22;;;;;;;7.70;7.00;;;;;;;15.31;54.40;95304.63;5012364;28;20030;-86
2021/09/18 04:06:48;;;;;;;6.93;6.18;;;;;;;15.34;54.31;95303.97;5012173;28;20073;-86
2021/09/18 04:09:14;;;;;;;12.32;7.95;;;;;;;15.20;54.49;95293.56;5011560;28;20038;-87
2021/09/18 04:11:40;;;;;;;7.32;6.72;;;;;;;15.36;54.29;95320.50;5012388;28;20064;-86
2021/09/18 04:14:05;;;;;;;8.75;8.00;;;;;;;15.27;54.12;95306.41;5027247;28;20097;-85
2021/09/18 04:16:31;;;;;;;7.97;7.25;;;;;;;15.30;54.37;95311.09;5012935;28;20022;-86
2021/09/18 04:18:56;;;;;;;7.47;6.85;;;;;;;15.26;54.43;95304.84;5010473;28;20041;-87
2021/09/18 04:21:21;;;;;;;7.43;6.70;;;;;;;15.33;54.35;95323.84;5010840;28;20042;-86
2021/09/18 04:23:47;;;;;;;8.60;7.70;;;;;;;15.22;54.38;95302.03;5012121;28;20492;-88
2021/09/18 04:26:13;;;;;;;9.02;8.13;;;;;;;15.28;54.54;95310.66;5011930;28;20026;-88
2021/09/18 04:28:38;;;;;;;7.45;6.45;;;;;;;15.20;54.32;95303.47;5012556;28;20029;-86
2021/09/18 04:31:04;;;;;;;6.38;5.88;;;;;;;15.29;54.24;95321.03;5011273;28;20127;-86
2021/09/18 04:33:29;;;;;;;8.70;7.32;;;;;;;15.15;54.17;95291.06;4994253;28;20052;-85
2021/09/18 04:35:55;;;;;;;7.63;6.78;;;;;;;15.32;54.53;95319.59;5011794;28;20034;-86
2021/09/18 04:38:20;;;;;;;6.75;5.82;;;;;;;15.26;54.15;95318.25;5011799;28;20411;-86
2021/09/18 04:40:45;;;;;;;6.22;5.72;;;;;;;15.25;54.04;95316.66;5013613;28;20045;-87
2021/09/18 04:43:11;;;;;;;7.18;6.55;;;;;;;15.29;53.84;95328.28;4994414;28;20113;-88
2021/09/18 04:45:36;;;;;;;11.18;8.98;;;;;;;15.23;54.05;95325.03;4994356;28;20044;-87
2021/09/18 04:48:02;;;;;;;6.60;6.10;;;;;;;15.17;54.44;95318.31;5012283;28;20104;-86
2021/09/18 04:50:27;;;;;;;6.88;6.25;;;;;;;15.18;54.24;95319.09;5011546;28;20042;-86
2021/09/18 04:52:53;;;;;;;7.32;6.65;;;;;;;15.26;54.31;95328.97;5013389;28;20072;-87
2021/09/18 04:55:18;;;;;;;8.15;7.45;;;;;;;15.20;54.12;95323.03;5011859;28;20761;-88
2021/09/18 04:57:44;;;;;;;9.35;8.15;;;;;;;15.15;53.79;95315.19;5011682;28;20073;-87
2021/09/18 05:00:10;;;;;;;8.55;7.75;;;;;;;15.22;54.15;95328.03;5010688;28;20049;-87
2021/09/18 05:02:35;;;;;;;8.88;7.25;;;;;;;15.28;54.15;95343.59;4993755;28;20112;-86
2021/09/18 05:05:00;;;;;;;8.77;7.82;;;;;;;15.23;53.58;95326.94;5013472;28;20086;-86
2021/09/18 05:07:26;;;;;;;8.52;6.90;;;;;;;15.24;53.98;95331.16;5010602;28;20038;-86
2021/09/18 05:09:51;;;;;;;7.38;6.78;;;;;;;15.26;54.19;95331.66;5011264;28;20030;-87
2021/09/18 05:12:17;;;;;;;7.05;6.35;;;;;;;15.26;54.07;95339.69;5011655;28;20100;-88
2021/09/18 05:14:42;;;;;;;6.70;6.18;;;;;;;15.28;53.62;95334.75;5011069;28;20038;-88
2021/09/18 05:17:07;;;;;;;7.60;6.90;;;;;;;15.32;53.97;95331.09;5011614;28;20083;-86
2021/09/18 05:19:33;;;;;;;8.48;7.07;;;;;;;15.40;53.44;95342.84;4995489;28;20018;-85
2021/09/18 05:21:58;;;;;;;7.38;6.78;;;;;;;15.48;53.61;95344.69;4993996;28;20037;-86
2021/09/18 05:24:25;;;;;;;7.28;6.55;;;;;;;15.40;53.50;95323.31;5011038;28;20042;-86
2021/09/18 05:26:51;;;;;;;6.85;6.13;;;;;;;15.44;53.49;95321.53;5011290;28;20034;-86
2021/09/18 05:29:17;;;;;;;9.30;8.07;;;;;;;15.57;53.58;95339.25;5010905;28;20468;-86
2021/09/18 05:31:42;;;;;;;7.20;6.60;;;;;;;15.65;53.20;95342.97;4995433;28;20032;-85
2021/09/18 05:34:09;;;;;;;8.63;6.97;;;;;;;15.67;53.37;95340.75;4993099;28;20507;-87
2021/09/18 05:36:34;;;;;;;7.32;6.43;;;;;;;15.71;53.20;95347.78;5011229;28;20037;-87
2021/09/18 05:39:00;;;;;;;8.55;7.50;;;;;;;15.77;53.44;95348.38;5010572;28;20587;-87
2021/09/18 05:41:25;;;;;;;8.35;7.60;;;;;;;15.67;53.13;95330.81;4993721;28;20072;-87
2021/09/18 05:43:50;;;;;;;9.05;7.55;;;;;;;15.70;53.06;95321.31;5012913;28;20065;-87
2021/09/18 05:46:16;;;;;;;12.48;10.68;;;;;;;15.94;53.27;95347.41;5010662;28;20038;-87
2021/09/18 05:48:41;;;;;;;8.32;7.53;;;;;;;15.93;52.99;95341.25;4997587;28;20045;-87
2021/09/18 05:51:07;;;;;;;11.10;7.90;;;;;;;15.99;53.21;95337.25;4991619;28;20672;-87
2021/09/18 05:53:32;;;;;;;10.57;7.57;;;;;;;16.07;52.96;95349.78;4991094;28;20038;-87
2021/09/18 05:55:57;;;;;;;8.50;7.75;;;;;;;16.15;53.28;95344.66;4993206;28;20109;-88
2021/09/18 05:58:23;;;;;;;10.93;9.68;;;;;;;16.23;53.16;95346.44;4974187;28;20051;-88
2021/09/18 06:00:48;;;;;;;9.32;8.55;;;;;;;16.28;53.31;95352.38;4996622;28;20045;-87
2021/09/18 06:03:13;;;;;;;9.20;8.30;;;;;;;16.36;53.33;95348.78;5010574;28;20121;-86
2021/09/18 06:05:39;;;;;;;8.02;7.32;;;;;;;16.55;53.00;95358.19;5010835;28;20487;-87
2021/09/18 06:08:04;;;;;;;9.52;8.73;;;;;;;16.64;53.00;95348.91;5012835;28;20022;-86
2021/09/18 06:10:30;;;;;;;11.73;9.15;;;;;;;16.74;52.66;95363.03;5011351;28;20042;-86
2021/09/18 06:12:55;;;;;;;7.63;7.03;;;;;;;16.79;52.82;95355.53;5010280;28;20496;-88
2021/09/18 06:15:21;;;;;;;9.60;8.68;;;;;;;16.88;53.01;95355.38;5010292;28;20057;-87
2021/09/18 06:17:46;;;;;;;8.45;7.75;;;;;;;16.96;52.89;95354.50;5010775;28;20117;-87
2021/09/18 06:20:12;;;;;;;9.02;8.13;;;;;;;17.04;52.46;95361.63;5010243;28;20029;-86
2021/09/18 06:22:37;;;;;;;8.80;8.10;;;;;;;17.24;52.63;95367.97;5012106;28;20041;-87
2021/09/18 06:25:03;;;;;;;8.30;7.60;;;;;;;17.41;52.37;95370.38;5010810;28;20034;-87
2021/09/18 06:27:28;;;;;;;8.88;8.18;;;;;;;17.46;52.10;95366.69;5010761;28;20049;-86
2021/09/18 06:29:54;;;;;;;10.82;9.00;;;;;;;17.49;52.07;95354.44;5010019;28;20442;-88
2021/09/18 06:32:19;;;;;;;10.65;8.55;;;;;;;17.72;52.02;95373.53;5012439;28;20060;-88
2021/09/18 06:34:45;;;;;;;8.25;7.47;;;;;;;17.75;52.01;95368.25;5016398;28;20105;-88
2021/09/18 06:37:10;;;;;;;8.40;7.60;;;;;;;17.85;52.23;95366.97;5014331;28;20030;-87
2021/09/18 06:39:36;;;;;;;9.73;8.43;;;;;;;18.00;52.08;95376.97;5013928;28;20053;-87
2021/09/18 06:42:02;;;;;;;8.35;7.55;;;;;;;18.10;52.01;95379.16;5014129;28;20030;-88
2021/09/18 06:44:28;;;;;;;9.10;8.38;;;;;;;18.04;51.94;95361.72;5013757;28;20049;-87
2021/09/18 06:46:53;;;;;;;9.20;8.40;;;;;;;18.21;51.86;95363.28;5015842;28;20037;-88
2021/09/18 06:49:18;;;;;;;9.80;8.80;;;;;;;18.32;51.71;95364.31;5013460;28;20041;-87
2021/09/18 06:51:44;;;;;;;9.88;8.95;;;;;;;18.41;51.81;95361.47;5013999;28;20041;-87
2021/09/18 06:54:09;;;;;;;11.63;8.73;;;;;;;18.52;51.79;95362.50;5014052;28;20040;-88
2021/09/18 06:56:35;;;;;;;8.32;7.68;;;;;;;18.66;51.76;95367.44;5014182;28;20038;-86
2021/09/18 06:59:00;;;;;;;8.30;7.50;;;;;;;18.81;51.48;95368.56;5016354;28;20028;-86
2021/09/18 07:01:27;;;;;;;8.27;7.47;;;;;;;18.93;51.64;95373.84;5014835;28;20042;-88
2021/09/18 07:03:53;;;;;;;9.35;8.55;;;;;;;19.06;51.25;95374.53;5013598;28;20041;-89
2021/09/18 07:06:18;;;;;;;8.45;7.72;;;;;;;19.11;51.22;95368.84;5013675;28;20046;-86
2021/09/18 07:08:44;;;;;;;8.10;7.43;;;;;;;19.22;51.23;95367.94;5013389;28;20042;-88
2021/09/18 07:11:09;;;;;;;6.90;6.40;;;;;;;19.29;50.98;95372.69;5013507;28;20030;-87
2021/09/18 07:13:34;;;;;;;8.10;6.88;;;;;;;19.36;50.98;95367.47;5015183;28;20401;-87
2021/09/18 07:16:00;;;;;;;7.47;6.88;;;;;;;19.58;50.90;95370.59;5013086;28;20037;-85
2021/09/18 07:18:25;;;;;;;8.10;7.32;;;;;;;19.68;50.75;95365.44;5013292;28;20045;-85
2021/09/18 07:20:51;;;;;;;7.57;6.97;;;;;;;19.84;50.32;95380.75;5012922;28;20117;-84
2021/09/18 07:23:16;;;;;;;6.30;5.82;;;;;;;19.81;50.62;95349.06;5012900;28;20026;-75
2021/09/18 07:25:42;;;;;;;7.35;6.75;;;;;;;20.01;50.37;95372.19;5014315;28;20494;-84
2021/09/18 07:28:07;;;;;;;7.70;6.32;;;;;;;20.06;50.38;95377.31;5011883;28;20569;-72
2021/09/18 07:30:33;;;;;;;8.35;6.43;;;;;;;20.15;50.39;95377.06;4993021;28;20046;-80
2021/09/18 07:32:59;;;;;;;6.80;6.20;;;;;;;20.31;49.94;95387.75;5010203;28;20046;-70
2021/09/18 07:35:24;;;;;;;7.47;6.78;;;;;;;20.42;49.79;95389.53;5010068;28;20057;-71
2021/09/18 07:37:49;;;;;;;7.35;6.68;;;;;;;20.29;48.87;95382.72;5012108;28;20571;-81
2021/09/18 07:40:15;;;;;;;8.20;7.50;;;;;;;20.29;48.26;95365.75;5009971;28;20042;-73
2021/09/18 07:42:41;;;;;;;9.80;8.98;;;;;;;20.40;48.18;95389.09;5007647;28;20041;-72
2021/09/18 07:45:07;;;;;;;7.75;7.07;;;;;;;19.96;47.95;95377.88;5010400;28;20520;-72
2021/09/18 07:47:33;;;;;;;7.57;6.90;;;;;;;20.49;47.58;95394.28;5009379;28;20499;-71
2021/09/18 07:49:58;;;;;;;8.00;7.30;;;;;;;20.62;47.43;95386.75;5011426;28;20026;-72
2021/09/18 07:52:24;;;;;;;8.35;7.43;;;;;;;20.45;47.55;95383.38;5009803;28;20069;-65
2021/09/18 07:54:49;;;;;;;8.05;7.35;;;;;;;20.86;48.16;95378.25;5009535;28;20030;-66
2021/09/18 07:57:15;;;;;;;7.57;6.97;;;;;;;20.89;46.34;95380.25;5009711;28;20042;-66
2021/09/18 07:59:40;;;;;;;8.00;7.38;;;;;;;21.15;46.89;95387.56;5008937;28;20113;-66
2021/09/18 08:02:07;;;;;;;7.18;6.55;;;;;;;21.28;46.41;95385.41;5009106;28;20075;-67
2021/09/18 08:04:33;;;;;;;8.43;7.75;;;;;;;21.43;45.88;95383.72;5010854;28;20391;-71
2021/09/18 08:06:58;;;;;;;8.45;7.55;;;;;;;21.55;45.58;95388.91;5009558;28;20488;-71
2021/09/18 08:09:24;;;;;;;8.23;7.00;;;;;;;20.49;45.56;95388.88;5009314;28;20123;-75
2021/09/18 08:11:50;;;;;;;8.25;7.22;;;;;;;19.90;47.33;95390.91;5009782;28;20064;-77
2021/09/18 08:14:15;;;;;;;7.60;7.00;;;;;;;20.24;46.43;95383.81;5010290;28;20032;-80
2021/09/18 08:16:41;;;;;;;7.90;7.30;;;;;;;20.64;45.72;95373.69;5012072;28;20117;-74
2021/09/18 08:19:06;;;;;;;8.02;7.05;;;;;;;21.10;44.72;95377.06;5009266;28;20034;-80
2021/09/18 08:21:31;;;;;;;8.48;7.45;;;;;;;21.24;44.76;95379.16;5017604;28;20034;-79
2021/09/18 08:23:57;;;;;;;7.05;6.35;;;;;;;20.82;45.39;95377.44;5008790;28;20061;-72
2021/09/18 08:26:29;;;;;;;9.15;7.13;;;;;;;20.70;45.79;95385.75;5009246;28;20018;-70
2021/09/18 08:28:55;;;;;;;7.72;7.03;;;;;;;21.30;45.11;95385.88;5010309;28;20041;-71
2021/09/18 08:31:20;;;;;;;7.60;7.00;;;;;;;21.43;45.19;95386.41;5008792;28;20034;-70
2021/09/18 08:33:45;;;;;;;6.80;6.30;;;;;;;21.75;45.07;95381.38;5008604;28;20056;-72
2021/09/18 08:36:11;;;;;;;7.50;6.93;;;;;;;21.97;45.25;95396.72;5008663;28;20133;-71
2021/09/18 08:38:36;;;;;;;7.57;6.93;;;;;;;21.95;44.56;95385.47;5007186;28;20042;-71
2021/09/18 08:41:02;;;;;;;7.40;6.80;;;;;;;22.09;44.21;95379.44;5010501;28;20534;-70
2021/09/18 08:43:27;;;;;;;7.50;6.90;;;;;;;21.49;43.93;95387.66;5008449;28;20044;-71
2021/09/18 08:45:54;;;;;;;6.85;6.25;;;;;;;21.35;43.43;95385.56;5008511;28;20449;-71
2021/09/18 08:48:23;;;;;;;6.63;6.03;;;;;;;21.29;43.81;95386.97;5008623;28;20046;-70
2021/09/18 08:50:49;;;;;;;6.80;6.10;;;;;;;21.84;42.90;95372.97;5007701;28;20065;-71
2021/09/18 08:53:15;;;;;;;7.15;6.50;;;;;;;22.16;42.98;95378.75;5008234;28;20037;-70
2021/09/18 08:55:40;;;;;;;6.10;5.60;;;;;;;22.23;43.34;95379.59;5010656;28;20034;-71
2021/09/18 08:58:06;;;;;;;6.20;5.78;;;;;;;22.29;42.75;95382.75;5023606;28;20121;-70
2021/09/18 09:00:34;;;;;;;6.95;6.03;;;;;;;22.27;42.54;95385.84;5008017;28;20030;-71
2021/09/18 09:03:07;;;;;;;6.03;5.60;;;;;;;22.39;42.58;95381.31;5007658;28;20053;-71
2021/09/18 09:05:36;;;;;;;6.05;5.55;;;;;;;22.53;42.77;95384.13;5000778;28;20069;-71
2021/09/18 09:08:17;;;;;;;6.43;5.38;;;;;;;22.67;42.52;95386.16;5011167;28;20434;-75
2021/09/18 09:10:45;;;;;;;5.15;4.70;;;;;;;22.75;41.93;95393.22;5008616;28;20112;-71
2021/09/18 09:13:12;;;;;;;5.90;5.30;;;;;;;22.79;41.88;95373.09;5008789;28;20049;-67
2021/09/18 09:15:38;;;;;;;5.70;5.30;;;;;;;22.52;40.91;95379.84;5008689;28;20045;-67
2021/09/18 09:18:18;;;;;;;6.43;5.72;;;;;;;22.54;41.61;95377.56;5007708;28;20065;-66
2021/09/18 09:20:45;;;;;;;6.18;5.68;;;;;;;22.24;42.30;95374.97;5001111;28;20271;-70
2021/09/18 09:23:15;;;;;;;6.40;5.97;;;;;;;21.68;42.66;95375.91;5007339;28;20036;-68
2021/09/18 09:25:41;;;;;;;5.03;4.63;;;;;;;22.35;41.85;95375.84;5010071;28;20026;-72
2021/09/18 09:28:21;;;;;;;5.88;5.38;;;;;;;22.54;40.92;95374.84;5007971;28;20037;-71
2021/09/18 09:30:47;;;;;;;5.05;4.65;;;;;;;22.62;40.59;95367.53;5007760;28;20034;-67
2021/09/18 09:33:13;;;;;;;4.55;4.15;;;;;;;22.75;40.63;95360.66;5007324;28;20169;-74
2021/09/18 09:35:41;;;;;;;4.40;4.07;;;;;;;22.84;39.94;95356.47;5008116;28;20041;-72
2021/09/18 09:38:07;;;;;;;4.53;3.60;;;;;;;22.88;38.95;95356.53;5007455;28;20030;-70
2021/09/18 09:40:47;;;;;;;5.07;4.70;;;;;;;22.99;38.89;95364.75;5009330;28;20095;-71
2021/09/18 09:43:14;;;;;;;3.67;3.30;;;;;;;22.92;39.31;95364.69;5007730;28;20072;-71
2021/09/18 09:45:40;;;;;;;3.80;3.50;;;;;;;23.08;39.52;95340.75;5008732;28;20033;-74
2021/09/18 09:48:09;;;;;;;3.80;3.40;;;;;;;23.06;38.50;95372.91;4991648;28;20038;-69
2021/09/18 09:50:36;;;;;;;5.18;3.55;;;;;;;23.23;38.61;95374.94;5007048;28;20115;-74
2021/09/18 09:53:03;;;;;;;4.20;3.90;;;;;;;23.32;38.41;95361.81;4991850;28;20053;-69
2021/09/18 09:55:35;;;;;;;5.05;3.83;;;;;;;23.37;38.50;95344.41;5007583;28;20684;-72
2021/09/18 09:58:06;;;;;;;3.80;3.47;;;;;;;23.46;38.17;95352.97;5007462;28;20034;-66
2021/09/18 10:00:51;;;;;;;;;;;;;;;23.53;37.17;95357.66;4989484;28;20026;-67
2021/09/18 10:03:25;;;;;;;3.60;3.30;;;;;;;23.16;37.86;95363.28;5006491;28;20399;-68
2021/09/18 10:05:52;;;;;;;3.83;3.53;;;;;;;23.08;38.14;95354.31;5008700;28;20056;-68
2021/09/18 10:08:23;;;;;;;3.00;2.80;;;;;;;23.52;38.23;95364.25;5011766;28;20053;-73
2021/09/18 10:10:50;;;;;;;2.00;1.90;;;;;;;23.24;38.17;95365.69;5013019;28;20032;-67
2021/09/18 10:13:18;;;;;;;3.40;3.10;;;;;;;21.89;38.57;95351.75;5011438;28;20041;-67
2021/09/18 10:15:44;;;;;;;2.65;2.10;;;;;;;21.29;39.60;95366.13;5011655;28;20522;-67
2021/09/18 10:18:10;;;;;;;2.22;2.10;;;;;;;21.68;39.21;95357.72;5010838;28;20041;-66
2021/09/18 10:23:20;;;;;;;2.37;2.27;;;;;;;21.71;38.85;95348.09;5011103;28;20506;-69
2021/09/18 10:25:57;;;;;;;2.50;2.30;;;;;;;21.85;38.58;95345.50;5028649;28;20095;-68
2021/09/18 10:28:43;;;;;;;2.83;2.50;;;;;;;21.62;39.01;95353.00;5011417;28;20134;-72
2021/09/18 10:31:21;;;;;;;2.38;2.03;;;;;;;21.72;38.32;95346.94;5011249;28;20042;-67
2021/09/18 10:33:52;;;;;;;2.35;2.17;;;;;;;22.36;36.81;95344.09;5005087;28;20038;-67
2021/09/18 10:36:20;;;;;;;2.25;2.15;;;;;;;22.99;35.56;95343.81;5010981;28;20038;-67
2021/09/18 10:38:48;;;;;;;2.05;1.80;;;;;;;23.03;35.57;95341.09;5010274;28;20048;-67
2021/09/18 10:41:15;;;;;;;2.85;2.05;;;;;;;22.37;33.88;95345.66;5010786;28;20100;-68
2021/09/18 10:43:43;;;;;;;2.28;2.13;;;;;;;22.79;33.91;95340.56;5012809;28;20690;-67
2021/09/18 10:46:29;;;;;;;2.33;2.10;;;;;;;21.87;35.77;95345.94;5011010;28;20049;-68
2021/09/18 10:48:57;;;;;;;5.18;2.50;;;;;;;23.06;33.69;95337.66;5005292;28;20050;-70
2021/09/18 10:51:40;;;;;;;3.78;2.70;;;;;;;23.95;34.06;95339.97;5010872;28;20042;-66
2021/09/18 10:54:08;;;;;;;2.22;2.10;;;;;;;24.26;34.96;95339.25;5010547;28;20759;-66
2021/09/18 10:56:57;;;;;;;3.10;2.60;;;;;;;23.18;36.30;95345.47;5010720;28;20411;-67
2021/09/18 10:59:44;;;;;;;3.35;2.97;;;;;;;23.88;35.46;95339.94;5009775;28;20018;-67
2021/09/18 11:02:32;;;;;;;3.67;2.65;;;;;;;24.74;33.57;95333.44;5009350;28;20033;-66
2021/09/18 11:04:58;;;;;;;3.58;2.63;;;;;;;24.08;34.36;95331.06;5007985;28;20361;-67
2021/09/18 11:07:43;;;;;;;3.60;2.35;;;;;;;24.12;34.03;95328.34;5010276;28;20084;-67
2021/09/18 11:10:11;;;;;;;2.00;1.80;;;;;;;23.54;33.41;95323.91;5010074;28;20567;-67
2021/09/18 11:12:37;;;;;;;2.65;1.80;;;;;;;23.64;34.70;95328.63;5010218;28;20042;-67
2021/09/18 11:15:05;;;;;;;2.28;1.95;;;;;;;23.01;34.57;95336.06;5009579;28;20038;-73
2021/09/18 11:17:31;;;;;;;2.28;2.08;;;;;;;22.63;35.32;95331.16;5010182;28;20150;-66
2021/09/18 11:20:11;;;;;;;2.67;1.95;;;;;;;23.27;34.23;95318.75;5011405;28;20051;-66
2021/09/18 11:22:39;;;;;;;2.30;2.10;;;;;;;23.51;33.16;95317.31;5002888;28;20034;-67
2021/09/18 11:25:29;;;;;;;4.03;1.90;;;;;;;23.67;32.82;95327.88;5009066;28;20125;-66
2021/09/18 11:28:06;;;;;;;1.92;1.83;;;;;;;23.50;33.10;95321.19;5010208;28;20112;-66
2021/09/18 11:30:53;;;;;;;1.83;1.73;;;;;;;23.18;32.83;95312.13;5009613;28;20045;-67
2021/09/18 11:33:22;;;;;;;1.42;1.30;;;;;;;22.73;32.51;95323.09;5009045;28;20054;-67